createdAt,value
2023-05-19T00:00:34.927Z,103058.44
2023-05-19T00:02:37.389Z,103066.88
2023-05-19T00:04:39.518Z,103061.59
2023-05-19T00:06:42.145Z,103071.91
2023-05-19T00:08:43.944Z,103069.50
2023-05-19T00:10:47.631Z,103062.47
2023-05-19T00:12:49.806Z,103071.06
2023-05-19T00:14:52.794Z,103071.22
2023-05-19T00:16:55.195Z,103064.22
2023-05-19T00:18:57.692Z,103068.06
2023-05-19T00:20:59.320Z,103066.50
2023-05-19T00:23:01.080Z,103065.78
2023-05-19T00:25:02.947Z,103070.50
2023-05-19T00:27:06.531Z,103064.38
2023-05-19T00:29:08.380Z,103067.34
2023-05-19T00:31:10.151Z,103062.06
2023-05-19T00:33:11.858Z,103056.94
2023-05-19T00:35:13.965Z,103056.22
2023-05-19T00:37:15.625Z,103050.06
2023-05-19T00:39:17.246Z,103044.94
2023-05-19T00:41:18.993Z,103044.22
2023-05-19T00:43:22.329Z,103043.63
2023-05-19T00:45:25.695Z,103037.50
2023-05-19T00:47:27.353Z,103040.34
2023-05-19T00:49:28.979Z,103041.50
2023-05-19T00:51:30.784Z,103038.06
2023-05-19T00:53:34.128Z,103048.34
2023-05-19T00:55:37.816Z,103046.66
2023-05-19T00:57:39.906Z,103050.66
2023-05-19T00:59:42.988Z,103042.78
2023-05-19T01:01:45.810Z,103042.19
2023-05-19T01:03:50.752Z,103040.63
2023-05-19T01:05:52.713Z,103040.78
2023-05-19T01:07:55.590Z,103033.94
2023-05-19T01:09:58.002Z,103038.63
2023-05-19T01:12:00.476Z,103032.50
2023-05-19T01:14:02.459Z,103040.94
2023-05-19T01:16:10.964Z,103038.34
2023-05-19T01:18:16.394Z,103028.63
2023-05-19T01:20:22.578Z,103031.47
2023-05-19T01:22:40.022Z,103036.03
2023-05-19T01:25:01.858Z,103031.59
2023-05-19T01:27:30.346Z,103037.19
2023-05-19T01:29:50.752Z,103041.06
2023-05-19T01:31:58.381Z,103038.59
2023-05-19T01:34:00.813Z,103035.31
2023-05-19T01:36:07.773Z,103037.44
2023-05-19T01:38:13.169Z,103038.59
2023-05-19T01:40:15.515Z,103035.31
2023-05-19T01:42:17.960Z,103037.28
2023-05-19T01:44:19.976Z,103034.84
2023-05-19T01:46:22.879Z,103040.44
2023-05-19T01:48:27.287Z,103040.56
2023-05-19T01:50:29.863Z,103039.84
2023-05-19T01:52:31.877Z,103046.38
2023-05-19T01:54:33.704Z,103044.69
2023-05-19T01:56:46.658Z,103050.25
2023-05-19T01:58:58.839Z,103045.94
2023-05-19T02:01:07.900Z,103051.47
2023-05-19T02:03:22.821Z,103050.63
2023-05-19T02:05:33.613Z,103051.75
2023-05-19T02:07:42.192Z,103049.19
2023-05-19T02:09:53.374Z,103050.19
2023-05-19T02:11:59.829Z,103055.16
2023-05-19T02:14:04.345Z,103055.16
2023-05-19T02:16:07.610Z,103053.59
2023-05-19T02:18:11.551Z,103055.56
2023-05-19T02:20:13.649Z,103046.72
2023-05-19T02:22:16.848Z,103050.41
2023-05-19T02:24:19.545Z,103050.53
2023-05-19T02:26:21.204Z,103044.28
2023-05-19T02:28:23.364Z,103055.13
2023-05-19T02:30:25.035Z,103048.97
2023-05-19T02:32:26.815Z,103049.97
2023-05-19T02:34:28.656Z,103051.84
2023-05-19T02:36:34.773Z,103053.81
2023-05-19T02:38:37.988Z,103053.09
2023-05-19T02:40:39.631Z,103054.09
2023-05-19T02:42:41.482Z,103055.22
2023-05-19T02:44:43.462Z,103052.63
2023-05-19T02:46:45.181Z,103050.91
2023-05-19T02:48:47.173Z,103046.63
2023-05-19T02:50:49.072Z,103047.63
2023-05-19T02:52:50.667Z,103046.06
2023-05-19T02:54:53.838Z,103047.03
2023-05-19T02:56:55.726Z,103048.03
2023-05-19T02:58:57.368Z,103042.75
2023-05-19T03:00:59.330Z,103040.16
2023-05-19T03:03:01.107Z,103047.59
2023-05-19T03:05:03.033Z,103041.41
2023-05-19T03:07:05.330Z,103046.13
2023-05-19T03:09:06.986Z,103047.13
2023-05-19T03:11:10.141Z,103041.84
2023-05-19T03:13:12.514Z,103041.13
2023-05-19T03:15:14.293Z,103050.22
2023-05-19T03:17:16.100Z,103044.97
2023-05-19T03:19:17.997Z,103050.38
2023-05-19T03:21:19.710Z,103048.66
2023-05-19T03:23:21.861Z,103049.63
2023-05-19T03:25:24.170Z,103053.34
2023-05-19T03:27:27.119Z,103047.06
2023-05-19T03:29:29.015Z,103049.78
2023-05-19T03:31:30.863Z,103052.63
2023-05-19T03:33:32.509Z,103049.91
2023-05-19T03:35:34.175Z,103054.47
2023-05-19T03:37:36.006Z,103053.59
2023-05-19T03:39:38.067Z,103053.59
2023-05-19T03:41:39.947Z,103057.19
2023-05-19T03:43:43.011Z,103053.47
2023-05-19T03:45:44.729Z,103062.34
2023-05-19T03:47:46.803Z,103060.00
2023-05-19T03:49:48.796Z,103061.34
2023-05-19T03:51:50.945Z,103064.94
2023-05-19T03:53:52.801Z,103063.22
2023-05-19T03:55:54.458Z,103065.78
2023-05-19T03:57:56.532Z,103069.22
2023-05-19T03:59:59.924Z,103064.38
2023-05-19T04:02:01.588Z,103067.81
2023-05-19T04:04:03.751Z,103063.13
2023-05-19T04:06:05.690Z,103072.81
2023-05-19T04:08:07.439Z,103069.97
2023-05-19T04:10:10.008Z,103065.31
2023-05-19T04:12:11.642Z,103071.44
2023-05-19T04:14:13.288Z,103069.31
2023-05-19T04:16:16.635Z,103063.59
2023-05-19T04:18:18.369Z,103064.91
2023-05-19T04:20:20.364Z,103066.41
2023-05-19T04:22:22.266Z,103063.25
2023-05-19T04:24:24.328Z,103061.69
2023-05-19T04:26:26.420Z,103058.44
2023-05-19T04:28:28.404Z,103059.59
2023-05-19T04:30:30.359Z,103056.31
2023-05-19T04:32:33.714Z,103056.34
2023-05-19T04:34:35.791Z,103052.06
2023-05-19T04:36:37.596Z,103055.78
2023-05-19T04:38:39.791Z,103050.38
2023-05-19T04:40:41.482Z,103050.53
2023-05-19T04:42:43.287Z,103051.50
2023-05-19T04:44:45.076Z,103056.94
2023-05-19T04:46:46.828Z,103055.94
2023-05-19T04:48:50.270Z,103059.63
2023-05-19T04:50:51.999Z,103054.19
2023-05-19T04:52:53.896Z,103052.28
2023-05-19T04:54:55.806Z,103052.28
2023-05-19T04:56:57.721Z,103054.97
2023-05-19T04:58:59.513Z,103049.34
2023-05-19T05:01:01.201Z,103052.88
2023-05-19T05:03:02.913Z,103050.13
2023-05-19T05:05:07.811Z,103044.53
2023-05-19T05:07:09.612Z,103045.47
2023-05-19T05:09:11.717Z,103050.88
2023-05-19T05:11:14.258Z,103053.38
2023-05-19T05:13:16.536Z,103053.16
2023-05-19T05:15:19.200Z,103043.19
2023-05-19T05:17:21.348Z,103044.88
2023-05-19T05:19:24.173Z,103043.78
2023-05-19T05:21:28.599Z,103040.97
2023-05-19T05:23:31.044Z,103046.16
2023-05-19T05:25:34.097Z,103046.94
2023-05-19T05:27:37.044Z,103044.13
2023-05-19T05:29:38.911Z,103045.75
2023-05-19T05:31:40.629Z,103042.91
2023-05-19T05:33:43.774Z,103045.56
2023-05-19T05:35:45.500Z,103041.00
2023-05-19T05:37:48.440Z,103035.63
2023-05-19T05:39:50.027Z,103036.34
2023-05-19T05:41:51.859Z,103034.53
2023-05-19T05:43:53.803Z,103040.72
2023-05-19T05:45:57.264Z,103046.06
2023-05-19T05:47:59.567Z,103036.00
2023-05-19T05:50:01.930Z,103038.63
2023-05-19T05:52:06.626Z,103044.78
2023-05-19T05:54:12.811Z,103037.16
2023-05-19T05:56:15.499Z,103033.59
2023-05-19T05:58:17.530Z,103037.03
2023-05-19T06:00:20.031Z,103028.69
2023-05-19T06:02:22.371Z,103029.38
2023-05-19T06:04:25.078Z,103034.50
2023-05-19T06:06:26.773Z,103035.94
2023-05-19T06:08:28.763Z,103032.00
2023-05-19T06:10:32.740Z,103034.19
2023-05-19T06:12:35.057Z,103034.69
2023-05-19T06:14:36.941Z,103036.03
2023-05-19T06:16:38.514Z,103032.94
2023-05-19T06:18:40.180Z,103028.13
2023-05-19T06:20:42.054Z,103030.66
2023-05-19T06:22:44.011Z,103034.56
2023-05-19T06:24:45.655Z,103032.44
2023-05-19T06:26:50.620Z,103036.34
2023-05-19T06:28:52.349Z,103018.88
2023-05-19T06:30:55.494Z,103035.91
2023-05-19T06:32:57.406Z,103027.50
2023-05-19T06:34:59.281Z,103031.72
2023-05-19T06:37:01.635Z,103035.06
2023-05-19T06:39:03.725Z,103032.91
2023-05-19T06:41:05.724Z,103024.47
2023-05-19T06:43:09.010Z,103027.97
2023-05-19T06:45:12.020Z,103021.59
2023-05-19T06:47:13.962Z,103026.44
2023-05-19T06:49:15.716Z,103026.00
2023-05-19T06:51:19.410Z,103031.94
2023-05-19T06:53:21.555Z,103026.84
2023-05-19T06:55:23.433Z,103026.56
2023-05-19T06:57:25.136Z,103022.50
2023-05-19T06:59:28.245Z,103021.84
2023-05-19T07:01:29.979Z,103016.72
2023-05-19T07:03:31.881Z,103018.59
2023-05-19T07:05:33.697Z,103024.06
2023-05-19T07:07:35.386Z,103024.44
2023-05-19T07:09:37.209Z,103020.81
2023-05-19T07:11:38.858Z,103018.44
2023-05-19T07:13:40.721Z,103026.97
2023-05-19T07:15:43.734Z,103025.88
2023-05-19T07:17:45.738Z,103027.06
2023-05-19T07:19:47.479Z,103028.69
2023-05-19T07:21:49.426Z,103024.16
2023-05-19T07:23:51.153Z,103027.03
2023-05-19T07:25:54.752Z,103024.38
2023-05-19T07:27:56.420Z,103017.91
2023-05-19T07:29:58.560Z,103023.09
2023-05-19T07:32:03.459Z,103020.22
2023-05-19T07:34:05.335Z,103020.94
2023-05-19T07:36:07.053Z,103019.25
2023-05-19T07:38:08.680Z,103020.41
2023-05-19T07:40:11.018Z,103016.84
2023-05-19T07:42:12.677Z,103017.72
2023-05-19T07:44:14.762Z,103019.00
2023-05-19T07:46:16.740Z,103024.13
2023-05-19T07:48:19.887Z,103014.59
2023-05-19T07:50:21.578Z,103015.88
2023-05-19T07:52:23.383Z,103014.19
2023-05-19T07:54:25.068Z,103011.66
2023-05-19T07:56:26.819Z,103015.25
2023-05-19T07:58:28.642Z,103015.22
2023-05-19T08:00:30.772Z,103018.19
2023-05-19T08:02:32.882Z,103015.41
2023-05-19T08:04:38.693Z,103012.38
2023-05-19T08:06:40.928Z,103018.53
2023-05-19T08:08:42.699Z,103010.16
2023-05-19T08:10:44.326Z,103010.94
2023-05-19T08:12:46.201Z,103007.47
2023-05-19T08:14:48.014Z,103003.19
2023-05-19T08:16:49.996Z,103009.47
2023-05-19T08:18:51.646Z,103007.72
2023-05-19T08:20:55.049Z,103009.53
2023-05-19T08:22:58.700Z,103004.97
2023-05-19T08:25:00.607Z,103003.19
2023-05-19T08:27:02.268Z,103010.50
2023-05-19T08:29:03.955Z,103007.84
2023-05-19T08:31:05.668Z,103007.56
2023-05-19T08:33:07.561Z,103002.31
2023-05-19T08:35:10.038Z,103009.91
2023-05-19T08:37:13.460Z,103001.91
2023-05-19T08:39:15.100Z,103006.06
2023-05-19T08:41:17.085Z,102997.84
2023-05-19T08:43:19.228Z,103000.53
2023-05-19T08:45:20.914Z,102991.03
2023-05-19T08:47:23.012Z,102994.56
2023-05-19T08:49:28.077Z,102988.91
2023-05-19T08:51:39.171Z,102994.00
2023-05-19T08:53:49.265Z,102986.91
2023-05-19T08:55:58.953Z,102994.06
2023-05-19T08:58:01.706Z,102981.22
2023-05-19T09:00:05.076Z,102990.03
2023-05-19T09:02:07.922Z,102990.53
2023-05-19T09:04:10.099Z,102979.09
2023-05-19T09:06:12.030Z,102982.41
2023-05-19T09:08:13.799Z,102977.31
2023-05-19T09:10:16.780Z,102981.09
2023-05-19T09:12:18.508Z,102976.25
2023-05-19T09:14:20.061Z,102977.84
2023-05-19T09:16:21.801Z,102976.41
2023-05-19T09:18:25.900Z,102978.00
2023-05-19T09:20:30.735Z,102971.00
2023-05-19T09:22:32.363Z,102973.41
2023-05-19T09:24:34.440Z,102972.56
2023-05-19T09:26:39.515Z,102973.00
2023-05-19T09:28:41.197Z,102975.19
2023-05-19T09:30:42.783Z,102973.13
2023-05-19T09:32:44.754Z,102968.50
2023-05-19T09:34:47.716Z,102982.56
2023-05-19T09:36:49.985Z,102972.97
2023-05-19T09:38:51.967Z,102974.25
2023-05-19T09:40:57.167Z,102985.28
2023-05-19T09:43:00.317Z,102980.16
2023-05-19T09:45:03.453Z,102978.56
2023-05-19T09:47:05.390Z,102975.88
2023-05-19T09:49:09.016Z,102985.66
2023-05-19T09:51:11.114Z,102982.03
2023-05-19T09:53:14.498Z,102983.38
2023-05-19T09:55:16.582Z,102996.09
2023-05-19T09:57:18.287Z,102986.47
2023-05-19T09:59:24.512Z,102984.66
2023-05-19T10:01:26.479Z,102983.47
2023-05-19T10:03:28.736Z,102985.41
2023-05-19T10:05:32.641Z,102987.94
2023-05-19T10:07:34.988Z,102986.84
2023-05-19T10:09:37.999Z,102987.72
2023-05-19T10:11:40.341Z,102984.44
2023-05-19T10:13:42.858Z,102980.28
2023-05-19T10:15:58.385Z,102982.69
2023-05-19T10:18:02.068Z,102974.19
2023-05-19T10:20:04.866Z,102980.94
2023-05-19T10:22:06.846Z,102971.25
2023-05-19T10:24:09.541Z,102975.22
2023-05-19T10:26:14.367Z,102975.34
2023-05-19T10:28:20.167Z,102973.75
2023-05-19T10:30:27.410Z,102975.50
2023-05-19T10:32:33.298Z,102977.59
2023-05-19T10:35:01.072Z,102976.00
2023-05-19T10:37:12.718Z,102973.94
2023-05-19T10:39:21.982Z,102973.09
2023-05-19T10:41:29.212Z,102967.03
2023-05-19T10:43:47.433Z,102962.19
2023-05-19T10:45:52.850Z,102968.63
2023-05-19T10:47:56.601Z,102965.59
2023-05-19T10:50:00.351Z,102963.16
2023-05-19T10:52:02.029Z,102969.00
2023-05-19T10:54:07.924Z,102963.44
2023-05-19T10:56:09.764Z,102958.19
2023-05-19T10:58:11.861Z,102961.31
2023-05-19T11:00:27.849Z,102960.31
2023-05-19T11:02:42.978Z,102954.22
2023-05-19T11:04:51.801Z,102942.22
2023-05-19T11:06:54.022Z,102948.75
2023-05-19T11:08:58.421Z,102944.94
2023-05-19T11:11:12.889Z,102948.66
2023-05-19T11:13:22.753Z,102949.66
2023-05-19T11:15:27.192Z,102944.88
2023-05-19T11:17:29.571Z,102937.78
2023-05-19T11:19:32.944Z,102950.59
2023-05-19T11:21:50.380Z,102938.13
2023-05-19T11:23:52.534Z,102934.47
2023-05-19T11:25:54.310Z,102940.97
2023-05-19T11:27:56.539Z,102943.09
2023-05-19T11:30:00.879Z,102940.38
2023-05-19T11:32:02.804Z,102948.81
2023-05-19T11:34:04.974Z,102946.69
2023-05-19T11:36:07.951Z,102943.16
2023-05-19T11:38:11.703Z,102948.91
2023-05-19T11:40:15.536Z,102940.97
2023-05-19T11:42:17.204Z,102948.94
2023-05-19T11:44:18.822Z,102948.00
2023-05-19T11:46:21.454Z,102938.66
2023-05-19T11:48:23.857Z,102937.69
2023-05-19T11:50:26.355Z,102939.44
2023-05-19T11:52:27.993Z,102941.22
2023-05-19T11:54:31.825Z,102938.44
2023-05-19T11:56:34.477Z,102939.59
2023-05-19T11:58:37.266Z,102944.41
2023-05-19T12:00:40.939Z,102941.41
2023-05-19T12:02:43.447Z,102934.75
2023-05-19T12:04:45.916Z,102934.56
2023-05-19T12:06:49.205Z,102934.88
2023-05-19T12:08:51.262Z,102936.63
2023-05-19T12:10:54.334Z,102933.88
2023-05-19T12:12:57.127Z,102936.72
2023-05-19T12:15:02.638Z,102943.47
2023-05-19T12:17:11.214Z,102943.78
2023-05-19T12:19:13.466Z,102942.94
2023-05-19T12:21:16.101Z,102936.50
2023-05-19T12:23:18.080Z,102937.09
2023-05-19T12:25:20.511Z,102939.59
2023-05-19T12:27:25.263Z,102939.06
2023-05-19T12:29:28.617Z,102929.34
2023-05-19T12:31:30.285Z,102933.84
2023-05-19T12:33:33.650Z,102933.84
2023-05-19T12:35:37.888Z,102926.53
2023-05-19T12:37:41.775Z,102925.09
2023-05-19T12:39:44.348Z,102936.81
2023-05-19T12:41:46.260Z,102934.31
2023-05-19T12:43:49.214Z,102931.75
2023-05-19T12:45:51.128Z,102935.94
2023-05-19T12:47:53.026Z,102923.84
2023-05-19T12:49:55.145Z,102929.41
2023-05-19T12:51:56.853Z,102929.91
2023-05-19T12:53:58.816Z,102926.81
2023-05-19T12:56:00.527Z,102931.25
2023-05-19T12:58:05.916Z,102932.88
2023-05-19T13:00:17.760Z,102936.19
2023-05-19T13:02:19.577Z,102943.09
2023-05-19T13:04:21.688Z,102939.97
2023-05-19T13:06:24.016Z,102936.59
2023-05-19T13:08:25.641Z,102932.13
2023-05-19T13:10:28.349Z,102934.91
2023-05-19T13:12:30.347Z,102943.28
2023-05-19T13:14:32.287Z,102936.84
2023-05-19T13:16:35.720Z,102942.13
2023-05-19T13:18:37.547Z,102937.34
2023-05-19T13:20:41.468Z,102935.00
2023-05-19T13:22:43.442Z,102933.59
2023-05-19T13:24:45.089Z,102932.19
2023-05-19T13:26:46.772Z,102934.38
2023-05-19T13:28:48.683Z,102934.31
2023-05-19T13:30:50.333Z,102933.16
2023-05-19T13:32:54.071Z,102925.47
2023-05-19T13:34:56.170Z,102924.25
2023-05-19T13:36:57.828Z,102928.34
2023-05-19T13:38:59.698Z,102925.13
2023-05-19T13:41:01.567Z,102930.38
2023-05-19T13:43:04.151Z,102934.78
2023-05-19T13:45:07.386Z,102924.66
2023-05-19T13:47:09.239Z,102933.53
2023-05-19T13:49:12.650Z,102933.19
2023-05-19T13:51:14.242Z,102929.78
2023-05-19T13:53:15.874Z,102922.88
2023-05-19T13:55:18.070Z,102922.38
2023-05-19T13:57:20.015Z,102930.72
2023-05-19T13:59:21.898Z,102923.69
2023-05-19T14:01:23.777Z,102923.97
2023-05-19T14:03:25.630Z,102923.38
2023-05-19T14:05:29.010Z,102925.34
2023-05-19T14:07:31.205Z,102924.97
2023-05-19T14:09:33.903Z,102916.91
2023-05-19T14:11:35.952Z,102925.84
2023-05-19T14:13:41.777Z,102921.63
2023-05-19T14:15:44.988Z,102925.25
2023-05-19T14:17:46.775Z,102926.34
2023-05-19T14:19:48.927Z,102931.34
2023-05-19T14:21:53.213Z,102917.66
2023-05-19T14:23:55.298Z,102919.88
2023-05-19T14:25:57.324Z,102920.34
2023-05-19T14:27:58.974Z,102917.22
2023-05-19T14:30:01.133Z,102928.31
2023-05-19T14:32:03.372Z,102926.53
2023-05-19T14:34:05.577Z,102926.47
2023-05-19T14:36:07.900Z,102927.72
2023-05-19T14:38:11.333Z,102930.19
2023-05-19T14:40:13.541Z,102934.56
2023-05-19T14:42:15.478Z,102941.16
2023-05-19T14:44:17.096Z,102938.22
2023-05-19T14:46:18.779Z,102929.25
2023-05-19T14:48:20.797Z,102926.97
2023-05-19T14:50:22.450Z,102932.56
2023-05-19T14:52:24.057Z,102929.19
2023-05-19T14:54:27.086Z,102932.22
2023-05-19T14:56:29.012Z,102934.41
2023-05-19T14:58:30.994Z,102930.78
2023-05-19T15:00:34.314Z,102939.66
2023-05-19T15:02:36.278Z,102939.88
2023-05-19T15:04:37.816Z,102935.66
2023-05-19T15:06:39.668Z,102934.25
2023-05-19T15:08:41.542Z,102944.75
2023-05-19T15:10:48.666Z,102948.91
2023-05-19T15:12:50.373Z,102936.81
2023-05-19T15:14:52.009Z,102947.25
2023-05-19T15:16:53.650Z,102951.63
2023-05-19T15:18:55.548Z,102951.19
2023-05-19T15:20:57.481Z,102954.34
2023-05-19T15:22:59.356Z,102949.41
2023-05-19T15:25:01.289Z,102947.00
2023-05-19T15:27:04.934Z,102942.66
2023-05-19T15:29:06.723Z,102939.53
2023-05-19T15:31:08.559Z,102943.91
2023-05-19T15:33:10.539Z,102941.22
2023-05-19T15:35:12.299Z,102937.50
2023-05-19T15:37:14.177Z,102948.28
2023-05-19T15:39:15.823Z,102931.97
2023-05-19T15:41:17.681Z,102941.88
2023-05-19T15:43:21.071Z,102947.91
2023-05-19T15:45:23.096Z,102936.94
2023-05-19T15:47:24.871Z,102936.81
2023-05-19T15:49:26.556Z,102926.66
2023-05-19T15:51:28.368Z,102927.22
2023-05-19T15:53:30.021Z,102934.81
2023-05-19T15:55:31.585Z,102934.09
2023-05-19T15:57:33.424Z,102925.91
2023-05-19T15:59:36.429Z,102928.78
2023-05-19T16:01:38.640Z,102920.81
2023-05-19T16:03:40.497Z,102913.66
2023-05-19T16:05:42.406Z,102916.56
2023-05-19T16:07:44.574Z,102919.09
2023-05-19T16:09:46.512Z,102921.91
2023-05-19T16:11:48.886Z,102923.72
2023-05-19T16:13:50.791Z,102924.03
2023-05-19T16:15:54.352Z,102922.22
2023-05-19T16:17:56.165Z,102925.31
2023-05-19T16:19:57.854Z,102915.13
2023-05-19T16:21:59.819Z,102917.78
2023-05-19T16:24:01.714Z,102922.31
2023-05-19T16:26:03.415Z,102920.03
2023-05-19T16:28:05.419Z,102913.72
2023-05-19T16:30:08.388Z,102916.59
2023-05-19T16:32:11.596Z,102918.34
2023-05-19T16:34:13.801Z,102926.16
2023-05-19T16:36:15.482Z,102923.28
2023-05-19T16:38:17.433Z,102925.13
2023-05-19T16:40:19.083Z,102923.50
2023-05-19T16:42:20.883Z,102922.13
2023-05-19T16:44:22.461Z,102921.34
2023-05-19T16:46:24.808Z,102926.91
2023-05-19T16:48:27.831Z,102919.75
2023-05-19T16:50:29.951Z,102915.13
2023-05-19T16:52:31.840Z,102924.56
2023-05-19T16:54:33.578Z,102918.44
2023-05-19T16:56:35.508Z,102912.34
2023-05-19T16:58:37.691Z,102916.47
2023-05-19T17:00:39.255Z,102917.81
2023-05-19T17:02:41.103Z,102912.75
2023-05-19T17:04:44.512Z,102916.44
2023-05-19T17:06:46.151Z,102907.34
2023-05-19T17:08:48.230Z,102913.13
2023-05-19T17:10:50.092Z,102915.53
2023-05-19T17:12:51.951Z,102916.84
2023-05-19T17:14:53.693Z,102910.69
2023-05-19T17:16:55.383Z,102911.19
2023-05-19T17:18:57.478Z,102912.28
2023-05-19T17:21:00.554Z,102909.56
2023-05-19T17:23:02.415Z,102896.81
2023-05-19T17:25:05.012Z,102898.53
2023-05-19T17:27:06.948Z,102903.03
2023-05-19T17:29:08.941Z,102904.31
2023-05-19T17:31:11.112Z,102901.31
2023-05-19T17:33:13.070Z,102896.66
2023-05-19T17:35:14.811Z,102898.34
2023-05-19T17:37:18.005Z,102903.38
2023-05-19T17:39:19.858Z,102903.13
2023-05-19T17:41:21.729Z,102907.81
2023-05-19T17:43:23.351Z,102901.53
2023-05-19T17:45:25.425Z,102902.22
2023-05-19T17:47:27.155Z,102895.03
2023-05-19T17:49:29.121Z,102904.78
2023-05-19T17:51:32.106Z,102908.88
2023-05-19T17:53:36.020Z,102904.84
2023-05-19T17:55:38.219Z,102903.34
2023-05-19T17:57:43.430Z,102905.06
2023-05-19T17:59:45.483Z,102907.78
2023-05-19T18:01:47.638Z,102908.63
2023-05-19T18:03:50.319Z,102911.97
2023-05-19T18:05:53.714Z,102914.25
2023-05-19T18:07:58.337Z,102926.09
2023-05-19T18:10:03.372Z,102916.31
2023-05-19T18:12:05.955Z,102917.13
2023-05-19T18:14:07.692Z,102914.97
2023-05-19T18:16:09.397Z,102914.69
2023-05-19T18:18:11.251Z,102920.56
2023-05-19T18:20:13.691Z,102918.16
2023-05-19T18:22:15.300Z,102925.69
2023-05-19T18:24:16.976Z,102914.03
2023-05-19T18:26:20.050Z,102907.63
2023-05-19T18:28:21.588Z,102920.28
2023-05-19T18:30:23.683Z,102913.22
2023-05-19T18:32:25.851Z,102918.66
2023-05-19T18:34:27.587Z,102918.84
2023-05-19T18:36:29.593Z,102924.06
2023-05-19T18:38:31.273Z,102927.81
2023-05-19T18:40:33.543Z,102934.97
2023-05-19T18:42:36.828Z,102934.69
2023-05-19T18:44:38.413Z,102928.91
2023-05-19T18:46:40.275Z,102930.75
2023-05-19T18:48:41.918Z,102932.59
2023-05-19T18:50:43.967Z,102919.78
2023-05-19T18:52:46.098Z,102938.78
2023-05-19T18:54:48.039Z,102939.53
2023-05-19T18:56:50.148Z,102928.66
2023-05-19T18:58:53.757Z,102923.78
2023-05-19T19:00:55.430Z,102926.63
2023-05-19T19:02:57.315Z,102931.22
2023-05-19T19:04:59.215Z,102941.06
2023-05-19T19:07:01.253Z,102939.94
2023-05-19T19:09:02.844Z,102933.31
2023-05-19T19:11:04.813Z,102933.03
2023-05-19T19:13:06.723Z,102934.66
2023-05-19T19:15:11.189Z,102938.81
2023-05-19T19:17:14.276Z,102947.81
2023-05-19T19:19:16.201Z,102941.19
2023-05-19T19:21:17.960Z,102952.75
2023-05-19T19:23:19.601Z,102952.44
2023-05-19T19:25:23.219Z,102954.91
2023-05-19T19:27:25.544Z,102959.06
2023-05-19T19:29:27.353Z,102957.69
2023-05-19T19:31:30.370Z,102958.28
2023-05-19T19:33:32.251Z,102964.31
2023-05-19T19:35:34.013Z,102953.91
2023-05-19T19:37:35.691Z,102963.53
2023-05-19T19:39:37.391Z,102962.41
2023-05-19T19:41:39.272Z,102963.81
2023-05-19T19:43:41.120Z,102974.31
2023-05-19T19:45:45.304Z,102974.00
2023-05-19T19:47:48.570Z,102977.28
2023-05-19T19:49:50.183Z,102969.63
2023-05-19T19:51:51.885Z,102967.44
2023-05-19T19:53:53.596Z,102968.84
2023-05-19T19:56:00.030Z,102965.63
2023-05-19T19:58:01.680Z,102959.81
2023-05-19T20:00:04.664Z,102961.44
2023-05-19T20:02:07.046Z,102961.97
2023-05-19T20:04:10.328Z,102966.09
2023-05-19T20:06:12.186Z,102959.28
2023-05-19T20:08:14.794Z,102968.72
2023-05-19T20:10:17.775Z,102968.25
2023-05-19T20:12:19.385Z,102967.75
2023-05-19T20:14:20.981Z,102972.75
2023-05-19T20:16:22.561Z,102969.53
2023-05-19T20:18:24.280Z,102970.91
2023-05-19T20:20:27.197Z,102972.31
2023-05-19T20:22:28.822Z,102970.94
2023-05-19T20:24:30.485Z,102964.97
2023-05-19T20:26:32.375Z,102964.47
2023-05-19T20:28:33.945Z,102965.00
2023-05-19T20:30:35.692Z,102969.31
2023-05-19T20:32:37.536Z,102961.25
2023-05-19T20:34:39.290Z,102963.50
2023-05-19T20:36:42.804Z,102963.19
2023-05-19T20:38:44.376Z,102957.22
2023-05-19T20:40:49.673Z,102965.97
2023-05-19T20:42:52.395Z,102966.50
2023-05-19T20:44:54.056Z,102960.53
2023-05-19T20:46:55.706Z,102965.31
2023-05-19T20:48:57.551Z,102964.81
2023-05-19T20:50:59.470Z,102964.31
2023-05-19T20:53:02.471Z,102967.41
2023-05-19T20:55:04.771Z,102974.09
2023-05-19T20:57:06.698Z,102961.63
2023-05-19T20:59:08.316Z,102962.81
2023-05-19T21:01:10.318Z,102962.16
2023-05-19T21:03:12.526Z,102957.88
2023-05-19T21:05:14.122Z,102968.16
2023-05-19T21:07:16.057Z,102953.97
2023-05-19T21:09:19.340Z,102961.50
2023-05-19T21:13:25.739Z,102955.72
2023-05-19T21:15:27.396Z,102958.81
2023-05-19T21:17:29.471Z,102958.09
2023-05-19T21:19:31.729Z,102959.13
2023-05-19T21:21:33.861Z,102963.94
2023-05-19T21:23:35.764Z,102957.59
2023-05-19T21:25:39.512Z,102961.34
2023-05-19T21:27:41.170Z,102955.22
2023-05-19T21:29:43.044Z,102959.16
2023-05-19T21:31:44.700Z,102956.44
2023-05-19T21:33:46.643Z,102961.22
2023-05-19T21:35:48.364Z,102964.97
2023-05-19T21:37:50.088Z,102958.81
2023-05-19T21:39:51.868Z,102966.16
2023-05-19T21:41:55.003Z,102960.88
2023-05-19T21:43:56.888Z,102966.53
2023-05-19T21:45:59.201Z,102968.56
2023-05-19T21:48:00.921Z,102970.63
2023-05-19T21:50:02.831Z,102966.38
2023-05-19T21:52:05.433Z,102964.66
2023-05-19T21:54:07.033Z,102965.88
2023-05-19T21:56:08.877Z,102965.00
2023-05-19T21:58:11.995Z,102967.03
2023-05-19T22:00:14.672Z,102965.34
2023-05-19T22:02:16.764Z,102965.34
2023-05-19T22:04:18.977Z,102956.47
2023-05-19T22:06:21.343Z,102960.03
2023-05-19T22:08:23.024Z,102957.47
2023-05-19T22:10:24.585Z,102960.22
2023-05-19T22:12:26.432Z,102955.94
2023-05-19T22:14:29.485Z,102964.31
2023-05-19T22:16:31.234Z,102953.56
2023-05-19T22:18:33.289Z,102947.41
2023-05-19T22:20:35.132Z,102949.31
2023-05-19T22:22:36.923Z,102955.78
2023-05-19T22:24:38.858Z,102956.09
2023-05-19T22:26:40.715Z,102949.78
2023-05-19T22:28:44.257Z,102950.13
2023-05-19T22:30:47.664Z,102942.94
2023-05-19T22:32:50.153Z,102939.53
2023-05-19T22:34:51.958Z,102937.84
2023-05-19T22:36:53.652Z,102939.88
2023-05-19T22:38:55.290Z,102936.28
2023-05-19T22:40:56.958Z,102939.19
2023-05-19T22:42:58.808Z,102945.69
2023-05-19T22:45:00.512Z,102942.28
2023-05-19T22:47:04.165Z,102938.84
2023-05-19T22:49:08.146Z,102942.59
2023-05-19T22:51:09.889Z,102948.41
2023-05-19T22:53:11.594Z,102937.66
2023-05-19T22:55:13.479Z,102938.03
2023-05-19T22:57:15.345Z,102936.31
2023-05-19T22:59:16.980Z,102941.06
2023-05-19T23:01:18.984Z,102936.97
2023-05-19T23:03:22.361Z,102947.88
2023-05-19T23:05:24.072Z,102939.19
2023-05-19T23:07:26.056Z,102942.25
2023-05-19T23:09:27.578Z,102940.72
2023-05-19T23:11:29.466Z,102938.16
2023-05-19T23:13:31.405Z,102935.63
2023-05-19T23:15:33.234Z,102931.16
2023-05-19T23:17:35.326Z,102936.78
2023-05-19T23:19:38.705Z,102936.13
2023-05-19T23:21:41.394Z,102933.72
2023-05-19T23:23:43.138Z,102936.78